sensor_id;sensor_type;location;lat;lon;timestamp;temperature;humidity
81800;DHT22;71195;52.528;5.704;2023-08-08T00:00:11;16.30;63.50
81800;DHT22;71195;52.528;5.704;2023-08-08T00:02:40;16.30;63.40
81800;DHT22;71195;52.528;5.704;2023-08-08T00:05:10;16.30;63.50
81800;DHT22;71195;52.528;5.704;2023-08-08T00:07:39;16.30;63.60
81800;DHT22;71195;52.528;5.704;2023-08-08T00:10:09;16.20;63.60
81800;DHT22;71195;52.528;5.704;2023-08-08T00:12:41;16.30;63.60
81800;DHT22;71195;52.528;5.704;2023-08-08T00:15:10;16.30;63.70
81800;DHT22;71195;52.528;5.704;2023-08-08T00:17:39;16.30;63.70
81800;DHT22;71195;52.528;5.704;2023-08-08T00:20:10;16.20;63.80
81800;DHT22;71195;52.528;5.704;2023-08-08T00:22:39;16.30;63.90
81800;DHT22;71195;52.528;5.704;2023-08-08T00:25:08;16.30;63.90
81800;DHT22;71195;52.528;5.704;2023-08-08T00:27:40;16.30;64.00
81800;DHT22;71195;52.528;5.704;2023-08-08T00:30:11;16.30;64.10
81800;DHT22;71195;52.528;5.704;2023-08-08T00:32:41;16.20;64.10
81800;DHT22;71195;52.528;5.704;2023-08-08T00:35:10;16.30;64.10
81800;DHT22;71195;52.528;5.704;2023-08-08T00:37:40;16.30;64.20
81800;DHT22;71195;52.528;5.704;2023-08-08T00:40:09;16.30;64.20
81800;DHT22;71195;52.528;5.704;2023-08-08T00:42:41;16.40;64.30
81800;DHT22;71195;52.528;5.704;2023-08-08T00:45:13;16.40;64.20
81800;DHT22;71195;52.528;5.704;2023-08-08T00:47:42;16.40;64.30
81800;DHT22;71195;52.528;5.704;2023-08-08T00:50:13;16.40;64.30
81800;DHT22;71195;52.528;5.704;2023-08-08T00:52:44;16.40;64.40
81800;DHT22;71195;52.528;5.704;2023-08-08T00:55:16;16.40;64.40
81800;DHT22;71195;52.528;5.704;2023-08-08T00:57:48;16.40;64.40
81800;DHT22;71195;52.528;5.704;2023-08-08T01:00:17;16.30;64.30
81800;DHT22;71195;52.528;5.704;2023-08-08T01:02:47;16.40;64.40
81800;DHT22;71195;52.528;5.704;2023-08-08T01:05:16;16.40;64.50
81800;DHT22;71195;52.528;5.704;2023-08-08T01:07:51;16.40;64.60
81800;DHT22;71195;52.528;5.704;2023-08-08T01:10:24;16.40;64.70
81800;DHT22;71195;52.528;5.704;2023-08-08T01:12:59;16.40;64.60
81800;DHT22;71195;52.528;5.704;2023-08-08T01:15:30;16.40;64.70
81800;DHT22;71195;52.528;5.704;2023-08-08T01:18:02;16.40;64.70
81800;DHT22;71195;52.528;5.704;2023-08-08T01:20:33;16.40;64.80
81800;DHT22;71195;52.528;5.704;2023-08-08T01:23:09;16.40;64.80
81800;DHT22;71195;52.528;5.704;2023-08-08T01:25:42;16.40;65.00
81800;DHT22;71195;52.528;5.704;2023-08-08T01:28:12;16.40;65.10
81800;DHT22;71195;52.528;5.704;2023-08-08T01:30:43;16.40;65.10
81800;DHT22;71195;52.528;5.704;2023-08-08T01:33:12;16.40;65.20
81800;DHT22;71195;52.528;5.704;2023-08-08T01:35:45;16.40;65.30
81800;DHT22;71195;52.528;5.704;2023-08-08T01:38:19;16.40;65.30
81800;DHT22;71195;52.528;5.704;2023-08-08T01:40:51;16.40;65.40
81800;DHT22;71195;52.528;5.704;2023-08-08T01:43:21;16.40;65.40
81800;DHT22;71195;52.528;5.704;2023-08-08T01:45:52;16.40;65.50
81800;DHT22;71195;52.528;5.704;2023-08-08T01:48:21;16.40;65.50
81800;DHT22;71195;52.528;5.704;2023-08-08T01:50:51;16.40;65.50
81800;DHT22;71195;52.528;5.704;2023-08-08T01:53:21;16.40;65.60
81800;DHT22;71195;52.528;5.704;2023-08-08T01:55:53;16.40;65.60
81800;DHT22;71195;52.528;5.704;2023-08-08T01:58:22;16.40;65.60
81800;DHT22;71195;52.528;5.704;2023-08-08T02:00:51;16.40;65.70
81800;DHT22;71195;52.528;5.704;2023-08-08T02:03:20;16.40;65.60
81800;DHT22;71195;52.528;5.704;2023-08-08T02:05:50;16.40;65.70
81800;DHT22;71195;52.528;5.704;2023-08-08T02:08:19;16.40;65.80
81800;DHT22;71195;52.528;5.704;2023-08-08T02:10:48;16.40;65.80
81800;DHT22;71195;52.528;5.704;2023-08-08T02:13:20;16.40;65.80
81800;DHT22;71195;52.528;5.704;2023-08-08T02:15:49;16.40;65.80
81800;DHT22;71195;52.528;5.704;2023-08-08T02:18:19;16.40;65.80
81800;DHT22;71195;52.528;5.704;2023-08-08T02:20:48;16.40;65.70
81800;DHT22;71195;52.528;5.704;2023-08-08T02:23:17;16.40;65.70
81800;DHT22;71195;52.528;5.704;2023-08-08T02:25:46;16.40;65.70
81800;DHT22;71195;52.528;5.704;2023-08-08T02:28:18;16.40;65.70
81800;DHT22;71195;52.528;5.704;2023-08-08T02:30:48;16.40;65.70
81800;DHT22;71195;52.528;5.704;2023-08-08T02:33:17;16.40;65.60
81800;DHT22;71195;52.528;5.704;2023-08-08T02:35:46;16.40;65.60
81800;DHT22;71195;52.528;5.704;2023-08-08T02:38:15;16.40;65.60
81800;DHT22;71195;52.528;5.704;2023-08-08T02:40:44;16.40;65.50
81800;DHT22;71195;52.528;5.704;2023-08-08T02:43:14;16.40;65.60
81800;DHT22;71195;52.528;5.704;2023-08-08T02:45:46;16.40;65.50
81800;DHT22;71195;52.528;5.704;2023-08-08T02:48:15;16.40;65.50
81800;DHT22;71195;52.528;5.704;2023-08-08T02:50:44;16.40;65.60
81800;DHT22;71195;52.528;5.704;2023-08-08T02:53:14;16.40;65.60
81800;DHT22;71195;52.528;5.704;2023-08-08T02:55:47;16.40;65.50
81800;DHT22;71195;52.528;5.704;2023-08-08T02:58:16;16.40;65.50
81800;DHT22;71195;52.528;5.704;2023-08-08T03:00:48;16.40;65.60
81800;DHT22;71195;52.528;5.704;2023-08-08T03:03:19;16.40;65.50
81800;DHT22;71195;52.528;5.704;2023-08-08T03:05:48;16.40;65.50
81800;DHT22;71195;52.528;5.704;2023-08-08T03:08:19;16.30;65.50
81800;DHT22;71195;52.528;5.704;2023-08-08T03:10:49;16.30;65.50
81800;DHT22;71195;52.528;5.704;2023-08-08T03:13:18;16.30;65.50
81800;DHT22;71195;52.528;5.704;2023-08-08T03:15:51;16.30;65.50
81800;DHT22;71195;52.528;5.704;2023-08-08T03:18:24;16.30;65.40
81800;DHT22;71195;52.528;5.704;2023-08-08T03:20:54;16.30;65.50
81800;DHT22;71195;52.528;5.704;2023-08-08T03:23:24;16.20;65.50
81800;DHT22;71195;52.528;5.704;2023-08-08T03:25:53;16.20;65.40
81800;DHT22;71195;52.528;5.704;2023-08-08T03:28:24;16.20;65.50
81800;DHT22;71195;52.528;5.704;2023-08-08T03:30:58;16.20;65.40
81800;DHT22;71195;52.528;5.704;2023-08-08T03:33:30;16.20;65.40
81800;DHT22;71195;52.528;5.704;2023-08-08T03:36:00;16.20;65.30
81800;DHT22;71195;52.528;5.704;2023-08-08T03:38:30;16.20;65.20
81800;DHT22;71195;52.528;5.704;2023-08-08T03:40:59;16.20;65.10
81800;DHT22;71195;52.528;5.704;2023-08-08T03:43:29;16.20;65.20
81800;DHT22;71195;52.528;5.704;2023-08-08T03:46:01;16.20;65.20
81800;DHT22;71195;52.528;5.704;2023-08-08T03:48:30;16.20;65.10
81800;DHT22;71195;52.528;5.704;2023-08-08T03:50:59;16.20;65.10
81800;DHT22;71195;52.528;5.704;2023-08-08T03:53:29;16.20;65.10
81800;DHT22;71195;52.528;5.704;2023-08-08T03:55:58;16.20;65.10
81800;DHT22;71195;52.528;5.704;2023-08-08T03:58:28;16.20;65.10
81800;DHT22;71195;52.528;5.704;2023-08-08T04:00:57;16.20;65.10
81800;DHT22;71195;52.528;5.704;2023-08-08T04:03:29;16.20;65.10
81800;DHT22;71195;52.528;5.704;2023-08-08T04:05:58;16.20;65.10
81800;DHT22;71195;52.528;5.704;2023-08-08T04:08:27;16.20;65.10
81800;DHT22;71195;52.528;5.704;2023-08-08T04:10:56;16.20;65.10
81800;DHT22;71195;52.528;5.704;2023-08-08T04:13:25;16.20;65.00
81800;DHT22;71195;52.528;5.704;2023-08-08T04:15:54;16.20;65.00
81800;DHT22;71195;52.528;5.704;2023-08-08T04:18:24;16.20;65.10
81800;DHT22;71195;52.528;5.704;2023-08-08T04:20:55;16.20;65.10
81800;DHT22;71195;52.528;5.704;2023-08-08T04:23:25;16.20;65.10
81800;DHT22;71195;52.528;5.704;2023-08-08T04:25:54;16.20;65.00
81800;DHT22;71195;52.528;5.704;2023-08-08T04:28:23;16.20;65.10
81800;DHT22;71195;52.528;5.704;2023-08-08T04:30:52;16.20;65.00
81800;DHT22;71195;52.528;5.704;2023-08-08T04:33:21;16.20;65.00
81800;DHT22;71195;52.528;5.704;2023-08-08T04:35:51;16.20;65.00
81800;DHT22;71195;52.528;5.704;2023-08-08T04:38:22;16.20;65.00
81800;DHT22;71195;52.528;5.704;2023-08-08T04:40:51;16.20;65.00
81800;DHT22;71195;52.528;5.704;2023-08-08T04:43:21;16.10;65.00
81800;DHT22;71195;52.528;5.704;2023-08-08T04:45:51;16.10;65.00
81800;DHT22;71195;52.528;5.704;2023-08-08T04:48:20;16.10;65.00
81800;DHT22;71195;52.528;5.704;2023-08-08T04:50:49;16.10;65.00
81800;DHT22;71195;52.528;5.704;2023-08-08T04:53:18;16.10;64.90
81800;DHT22;71195;52.528;5.704;2023-08-08T04:55:50;16.10;64.90
81800;DHT22;71195;52.528;5.704;2023-08-08T04:58:19;16.10;64.90
81800;DHT22;71195;52.528;5.704;2023-08-08T05:00:48;16.10;64.80
81800;DHT22;71195;52.528;5.704;2023-08-08T05:03:18;16.00;64.90
81800;DHT22;71195;52.528;5.704;2023-08-08T05:05:47;16.10;64.90
81800;DHT22;71195;52.528;5.704;2023-08-08T05:08:17;16.00;64.80
81800;DHT22;71195;52.528;5.704;2023-08-08T05:10:46;16.10;64.80
81800;DHT22;71195;52.528;5.704;2023-08-08T05:13:18;16.10;64.80
81800;DHT22;71195;52.528;5.704;2023-08-08T05:15:47;16.10;64.80
81800;DHT22;71195;52.528;5.704;2023-08-08T05:18:16;16.10;64.80
81800;DHT22;71195;52.528;5.704;2023-08-08T05:20:46;16.10;64.80
81800;DHT22;71195;52.528;5.704;2023-08-08T05:23:15;16.10;64.80
81800;DHT22;71195;52.528;5.704;2023-08-08T05:25:45;16.10;64.80
81800;DHT22;71195;52.528;5.704;2023-08-08T05:28:14;16.20;64.70
81800;DHT22;71195;52.528;5.704;2023-08-08T05:30:46;16.10;64.60
81800;DHT22;71195;52.528;5.704;2023-08-08T05:33:15;16.20;64.70
81800;DHT22;71195;52.528;5.704;2023-08-08T05:35:45;16.10;64.70
81800;DHT22;71195;52.528;5.704;2023-08-08T05:38:14;16.20;64.70
81800;DHT22;71195;52.528;5.704;2023-08-08T05:40:43;16.20;64.50
81800;DHT22;71195;52.528;5.704;2023-08-08T05:43:12;16.20;64.50
81800;DHT22;71195;52.528;5.704;2023-08-08T05:45:47;16.30;64.50
81800;DHT22;71195;52.528;5.704;2023-08-08T05:48:16;16.30;64.50
81800;DHT22;71195;52.528;5.704;2023-08-08T05:50:45;16.40;64.40
81800;DHT22;71195;52.528;5.704;2023-08-08T05:53:15;16.40;64.30
81800;DHT22;71195;52.528;5.704;2023-08-08T05:55:44;16.40;64.40
81800;DHT22;71195;52.528;5.704;2023-08-08T05:58:13;16.40;64.30
81800;DHT22;71195;52.528;5.704;2023-08-08T06:00:42;16.50;64.30
81800;DHT22;71195;52.528;5.704;2023-08-08T06:03:14;16.50;64.20
81800;DHT22;71195;52.528;5.704;2023-08-08T06:05:43;16.60;64.20
81800;DHT22;71195;52.528;5.704;2023-08-08T06:08:12;16.70;64.20
81800;DHT22;71195;52.528;5.704;2023-08-08T06:10:43;16.70;64.10
81800;DHT22;71195;52.528;5.704;2023-08-08T06:13:12;16.80;64.10
81800;DHT22;71195;52.528;5.704;2023-08-08T06:15:41;16.80;64.20
81800;DHT22;71195;52.528;5.704;2023-08-08T06:18:10;16.80;64.10
81800;DHT22;71195;52.528;5.704;2023-08-08T06:20:42;16.90;64.00
81800;DHT22;71195;52.528;5.704;2023-08-08T06:23:11;16.90;64.00
81800;DHT22;71195;52.528;5.704;2023-08-08T06:25:41;17.00;63.90
81800;DHT22;71195;52.528;5.704;2023-08-08T06:28:10;17.00;64.00
81800;DHT22;71195;52.528;5.704;2023-08-08T06:30:39;17.00;63.90
81800;DHT22;71195;52.528;5.704;2023-08-08T06:33:09;17.10;64.00
81800;DHT22;71195;52.528;5.704;2023-08-08T06:35:41;17.20;64.00
81800;DHT22;71195;52.528;5.704;2023-08-08T06:38:11;17.20;63.80
81800;DHT22;71195;52.528;5.704;2023-08-08T06:40:40;17.20;63.70
81800;DHT22;71195;52.528;5.704;2023-08-08T06:43:09;17.40;63.70
81800;DHT22;71195;52.528;5.704;2023-08-08T06:45:38;17.40;63.70
81800;DHT22;71195;52.528;5.704;2023-08-08T06:48:08;17.40;63.70
81800;DHT22;71195;52.528;5.704;2023-08-08T06:50:37;17.50;63.70
81800;DHT22;71195;52.528;5.704;2023-08-08T06:53:09;17.50;63.60
81800;DHT22;71195;52.528;5.704;2023-08-08T06:55:38;17.60;63.50
81800;DHT22;71195;52.528;5.704;2023-08-08T06:58:04;17.60;63.40
81800;DHT22;71195;52.528;5.704;2023-08-08T07:00:33;17.70;63.40
81800;DHT22;71195;52.528;5.704;2023-08-08T07:03:03;17.80;63.30
81800;DHT22;71195;52.528;5.704;2023-08-08T07:05:32;17.80;63.20
81800;DHT22;71195;52.528;5.704;2023-08-08T07:08:02;17.90;63.20
81800;DHT22;71195;52.528;5.704;2023-08-08T07:10:33;18.00;63.10
81800;DHT22;71195;52.528;5.704;2023-08-08T07:13:03;18.00;63.00
81800;DHT22;71195;52.528;5.704;2023-08-08T07:15:32;18.10;63.00
81800;DHT22;71195;52.528;5.704;2023-08-08T07:18:03;18.20;63.00
81800;DHT22;71195;52.528;5.704;2023-08-08T07:20:33;18.30;62.90
81800;DHT22;71195;52.528;5.704;2023-08-08T07:23:02;18.40;62.80
81800;DHT22;71195;52.528;5.704;2023-08-08T07:25:34;18.50;62.70
81800;DHT22;71195;52.528;5.704;2023-08-08T07:28:03;18.60;62.50
81800;DHT22;71195;52.528;5.704;2023-08-08T07:30:32;18.70;62.50
81800;DHT22;71195;52.528;5.704;2023-08-08T07:33:02;18.80;62.40
81800;DHT22;71195;52.528;5.704;2023-08-08T07:35:32;18.90;62.20
81800;DHT22;71195;52.528;5.704;2023-08-08T07:38:02;19.00;62.00
81800;DHT22;71195;52.528;5.704;2023-08-08T07:40:34;19.10;61.90
81800;DHT22;71195;52.528;5.704;2023-08-08T07:43:04;19.10;61.70
81800;DHT22;71195;52.528;5.704;2023-08-08T07:45:33;19.20;61.70
81800;DHT22;71195;52.528;5.704;2023-08-08T07:48:04;19.20;61.70
81800;DHT22;71195;52.528;5.704;2023-08-08T07:50:33;19.30;61.70
81800;DHT22;71195;52.528;5.704;2023-08-08T07:53:03;19.30;61.60
81800;DHT22;71195;52.528;5.704;2023-08-08T07:55:35;19.30;61.60
81800;DHT22;71195;52.528;5.704;2023-08-08T07:58:04;19.40;61.60
81800;DHT22;71195;52.528;5.704;2023-08-08T08:00:33;19.40;61.60
81800;DHT22;71195;52.528;5.704;2023-08-08T08:03:04;19.40;61.40
81800;DHT22;71195;52.528;5.704;2023-08-08T08:05:34;19.50;61.40
81800;DHT22;71195;52.528;5.704;2023-08-08T08:08:04;19.50;61.20
81800;DHT22;71195;52.528;5.704;2023-08-08T08:10:36;19.50;61.20
81800;DHT22;71195;52.528;5.704;2023-08-08T08:13:05;19.50;61.10
81800;DHT22;71195;52.528;5.704;2023-08-08T08:15:34;19.50;61.10
81800;DHT22;71195;52.528;5.704;2023-08-08T08:18:04;19.50;61.00
81800;DHT22;71195;52.528;5.704;2023-08-08T08:20:33;19.60;60.90
81800;DHT22;71195;52.528;5.704;2023-08-08T08:23:03;19.70;60.90
81800;DHT22;71195;52.528;5.704;2023-08-08T08:25:35;19.70;60.80
81800;DHT22;71195;52.528;5.704;2023-08-08T08:28:04;19.70;60.80
81800;DHT22;71195;52.528;5.704;2023-08-08T08:30:34;19.70;60.90
81800;DHT22;71195;52.528;5.704;2023-08-08T08:33:03;19.70;60.90
81800;DHT22;71195;52.528;5.704;2023-08-08T08:35:34;19.70;60.90
81800;DHT22;71195;52.528;5.704;2023-08-08T08:38:04;19.70;60.80
81800;DHT22;71195;52.528;5.704;2023-08-08T08:40:38;20.00;60.60
81800;DHT22;71195;52.528;5.704;2023-08-08T08:43:08;20.10;60.30
81800;DHT22;71195;52.528;5.704;2023-08-08T08:45:38;20.30;60.10
81800;DHT22;71195;52.528;5.704;2023-08-08T08:48:09;20.40;60.00
81800;DHT22;71195;52.528;5.704;2023-08-08T08:50:39;20.50;60.00
81800;DHT22;71195;52.528;5.704;2023-08-08T08:53:10;20.60;59.80
81800;DHT22;71195;52.528;5.704;2023-08-08T08:55:43;20.70;59.70
81800;DHT22;71195;52.528;5.704;2023-08-08T08:58:14;20.80;59.70
81800;DHT22;71195;52.528;5.704;2023-08-08T09:00:44;20.80;59.60
81800;DHT22;71195;52.528;5.704;2023-08-08T09:03:14;20.80;59.70
81800;DHT22;71195;52.528;5.704;2023-08-08T09:05:46;20.70;59.70
81800;DHT22;71195;52.528;5.704;2023-08-08T09:08:15;20.80;59.60
81800;DHT22;71195;52.528;5.704;2023-08-08T09:10:48;20.90;59.60
81800;DHT22;71195;52.528;5.704;2023-08-08T09:13:17;21.00;59.50
81800;DHT22;71195;52.528;5.704;2023-08-08T09:15:48;20.90;59.60
81800;DHT22;71195;52.528;5.704;2023-08-08T09:18:18;20.90;59.70
81800;DHT22;71195;52.528;5.704;2023-08-08T09:20:48;20.90;59.70
81800;DHT22;71195;52.528;5.704;2023-08-08T09:23:17;20.90;59.60
81800;DHT22;71195;52.528;5.704;2023-08-08T09:25:49;20.70;59.80
81800;DHT22;71195;52.528;5.704;2023-08-08T09:28:19;20.60;59.90
81800;DHT22;71195;52.528;5.704;2023-08-08T09:30:48;20.60;60.00
81800;DHT22;71195;52.528;5.704;2023-08-08T09:33:18;20.70;60.00
81800;DHT22;71195;52.528;5.704;2023-08-08T09:35:47;21.00;59.80
81800;DHT22;71195;52.528;5.704;2023-08-08T09:38:16;21.10;59.60
81800;DHT22;71195;52.528;5.704;2023-08-08T09:40:46;21.10;59.50
81800;DHT22;71195;52.528;5.704;2023-08-08T09:43:18;21.10;59.60
81800;DHT22;71195;52.528;5.704;2023-08-08T09:45:47;21.40;59.40
81800;DHT22;71195;52.528;5.704;2023-08-08T09:48:18;21.50;59.30
81800;DHT22;71195;52.528;5.704;2023-08-08T09:50:48;21.50;59.20
81800;DHT22;71195;52.528;5.704;2023-08-08T09:53:18;21.40;59.30
81800;DHT22;71195;52.528;5.704;2023-08-08T09:55:48;21.30;59.40
81800;DHT22;71195;52.528;5.704;2023-08-08T09:58:21;21.10;59.40
81800;DHT22;71195;52.528;5.704;2023-08-08T10:00:50;21.10;59.30
81800;DHT22;71195;52.528;5.704;2023-08-08T10:03:20;21.00;59.40
81800;DHT22;71195;52.528;5.704;2023-08-08T10:05:49;20.90;59.50
81800;DHT22;71195;52.528;5.704;2023-08-08T10:08:18;20.80;59.70
81800;DHT22;71195;52.528;5.704;2023-08-08T10:10:50;20.60;60.00
81800;DHT22;71195;52.528;5.704;2023-08-08T10:13:23;20.50;60.40
81800;DHT22;71195;52.528;5.704;2023-08-08T10:15:54;20.40;60.60
81800;DHT22;71195;52.528;5.704;2023-08-08T10:18:23;20.50;60.70
81800;DHT22;71195;52.528;5.704;2023-08-08T10:20:53;20.50;60.80
81800;DHT22;71195;52.528;5.704;2023-08-08T10:23:22;20.40;60.90
81800;DHT22;71195;52.528;5.704;2023-08-08T10:25:52;20.30;60.90
81800;DHT22;71195;52.528;5.704;2023-08-08T10:28:26;20.30;61.00
81800;DHT22;71195;52.528;5.704;2023-08-08T10:30:56;20.30;60.90
81800;DHT22;71195;52.528;5.704;2023-08-08T10:33:33;20.30;60.80
81800;DHT22;71195;52.528;5.704;2023-08-08T10:36:08;20.40;60.60
81800;DHT22;71195;52.528;5.704;2023-08-08T10:38:41;20.50;60.50
81800;DHT22;71195;52.528;5.704;2023-08-08T10:41:12;20.60;60.30
81800;DHT22;71195;52.528;5.704;2023-08-08T10:43:50;20.80;60.00
81800;DHT22;71195;52.528;5.704;2023-08-08T10:46:24;21.10;59.70
81800;DHT22;71195;52.528;5.704;2023-08-08T10:48:55;21.40;59.40
81800;DHT22;71195;52.528;5.704;2023-08-08T10:51:33;21.60;59.10
81800;DHT22;71195;52.528;5.704;2023-08-08T10:54:05;21.70;58.80
81800;DHT22;71195;52.528;5.704;2023-08-08T10:56:35;21.70;58.90
81800;DHT22;71195;52.528;5.704;2023-08-08T10:59:15;21.50;59.00
81800;DHT22;71195;52.528;5.704;2023-08-08T11:01:46;21.30;59.00
81800;DHT22;71195;52.528;5.704;2023-08-08T11:04:19;21.10;59.10
81800;DHT22;71195;52.528;5.704;2023-08-08T11:06:49;21.00;59.30
81800;DHT22;71195;52.528;5.704;2023-08-08T11:09:19;20.90;59.30
81800;DHT22;71195;52.528;5.704;2023-08-08T11:11:49;20.90;59.40
81800;DHT22;71195;52.528;5.704;2023-08-08T11:14:22;20.90;59.30
81800;DHT22;71195;52.528;5.704;2023-08-08T11:16:52;21.00;59.10
81800;DHT22;71195;52.528;5.704;2023-08-08T11:19:21;21.20;58.80
81800;DHT22;71195;52.528;5.704;2023-08-08T11:21:51;21.50;58.40
81800;DHT22;71195;52.528;5.704;2023-08-08T11:24:20;21.80;58.10
81800;DHT22;71195;52.528;5.704;2023-08-08T11:26:50;22.20;57.80
81800;DHT22;71195;52.528;5.704;2023-08-08T11:29:21;22.50;57.40
81800;DHT22;71195;52.528;5.704;2023-08-08T11:31:56;22.80;57.10
81800;DHT22;71195;52.528;5.704;2023-08-08T11:34:25;23.10;56.90
81800;DHT22;71195;52.528;5.704;2023-08-08T11:36:55;23.20;56.70
81800;DHT22;71195;52.528;5.704;2023-08-08T11:39:24;23.20;56.70
81800;DHT22;71195;52.528;5.704;2023-08-08T11:41:55;23.20;56.50
81800;DHT22;71195;52.528;5.704;2023-08-08T11:44:27;23.30;56.40
81800;DHT22;71195;52.528;5.704;2023-08-08T11:46:59;23.30;56.20
81800;DHT22;71195;52.528;5.704;2023-08-08T11:49:28;23.30;56.30
81800;DHT22;71195;52.528;5.704;2023-08-08T11:51:57;23.20;56.50
81800;DHT22;71195;52.528;5.704;2023-08-08T11:54:27;23.20;56.30
81800;DHT22;71195;52.528;5.704;2023-08-08T11:56:56;23.20;56.30
81800;DHT22;71195;52.528;5.704;2023-08-08T11:59:28;23.20;56.20
81800;DHT22;71195;52.528;5.704;2023-08-08T12:01:59;23.20;56.00
81800;DHT22;71195;52.528;5.704;2023-08-08T12:04:29;23.40;55.90
81800;DHT22;71195;52.528;5.704;2023-08-08T12:07:02;23.40;55.80
81800;DHT22;71195;52.528;5.704;2023-08-08T12:09:31;23.50;55.70
81800;DHT22;71195;52.528;5.704;2023-08-08T12:12:02;23.50;55.60
81800;DHT22;71195;52.528;5.704;2023-08-08T12:14:38;23.60;55.40
81800;DHT22;71195;52.528;5.704;2023-08-08T12:17:09;23.80;55.20
81800;DHT22;71195;52.528;5.704;2023-08-08T12:19:45;23.90;55.10
81800;DHT22;71195;52.528;5.704;2023-08-08T12:22:15;23.90;54.90
81800;DHT22;71195;52.528;5.704;2023-08-08T12:24:44;23.70;55.10
81800;DHT22;71195;52.528;5.704;2023-08-08T12:27:14;23.70;55.30
81800;DHT22;71195;52.528;5.704;2023-08-08T12:29:46;23.70;55.30
81800;DHT22;71195;52.528;5.704;2023-08-08T12:32:15;23.80;55.20
81800;DHT22;71195;52.528;5.704;2023-08-08T12:34:44;23.80;54.80
81800;DHT22;71195;52.528;5.704;2023-08-08T12:37:13;23.70;54.80
81800;DHT22;71195;52.528;5.704;2023-08-08T12:39:42;23.90;54.70
81800;DHT22;71195;52.528;5.704;2023-08-08T12:42:11;24.20;54.40
81800;DHT22;71195;52.528;5.704;2023-08-08T12:44:41;24.40;54.20
81800;DHT22;71195;52.528;5.704;2023-08-08T12:47:14;24.50;54.00
81800;DHT22;71195;52.528;5.704;2023-08-08T12:49:43;24.60;53.80
81800;DHT22;71195;52.528;5.704;2023-08-08T12:52:13;24.70;53.70
81800;DHT22;71195;52.528;5.704;2023-08-08T12:54:43;24.80;53.70
81800;DHT22;71195;52.528;5.704;2023-08-08T12:57:12;24.80;53.70
81800;DHT22;71195;52.528;5.704;2023-08-08T12:59:41;24.60;53.80
81800;DHT22;71195;52.528;5.704;2023-08-08T13:02:13;24.50;53.90
81800;DHT22;71195;52.528;5.704;2023-08-08T13:04:42;24.30;53.90
81800;DHT22;71195;52.528;5.704;2023-08-08T13:07:11;24.20;54.10
81800;DHT22;71195;52.528;5.704;2023-08-08T13:09:40;24.20;54.40
81800;DHT22;71195;52.528;5.704;2023-08-08T13:12:09;24.00;54.40
81800;DHT22;71195;52.528;5.704;2023-08-08T13:14:38;24.00;54.40
81800;DHT22;71195;52.528;5.704;2023-08-08T13:17:08;23.90;54.40
81800;DHT22;71195;52.528;5.704;2023-08-08T13:19:40;23.80;54.30
81800;DHT22;71195;52.528;5.704;2023-08-08T13:22:09;23.70;54.30
81800;DHT22;71195;52.528;5.704;2023-08-08T13:24:39;23.90;54.10
81800;DHT22;71195;52.528;5.704;2023-08-08T13:27:08;24.00;54.00
81800;DHT22;71195;52.528;5.704;2023-08-08T13:29:37;24.10;53.90
81800;DHT22;71195;52.528;5.704;2023-08-08T13:32:06;24.00;54.00
81800;DHT22;71195;52.528;5.704;2023-08-08T13:34:36;24.00;54.00
81800;DHT22;71195;52.528;5.704;2023-08-08T13:37:07;24.20;53.90
81800;DHT22;71195;52.528;5.704;2023-08-08T13:39:36;24.40;53.70
81800;DHT22;71195;52.528;5.704;2023-08-08T13:42:06;24.50;53.70
81800;DHT22;71195;52.528;5.704;2023-08-08T13:44:36;24.40;53.80
81800;DHT22;71195;52.528;5.704;2023-08-08T13:47:05;24.40;53.70
81800;DHT22;71195;52.528;5.704;2023-08-08T13:49:34;24.50;53.60
81800;DHT22;71195;52.528;5.704;2023-08-08T13:52:07;24.50;53.50
81800;DHT22;71195;52.528;5.704;2023-08-08T13:54:36;24.60;53.40
81800;DHT22;71195;52.528;5.704;2023-08-08T13:57:05;24.50;53.50
81800;DHT22;71195;52.528;5.704;2023-08-08T13:59:35;24.50;53.40
81800;DHT22;71195;52.528;5.704;2023-08-08T14:02:04;24.60;53.30
81800;DHT22;71195;52.528;5.704;2023-08-08T14:04:33;24.50;53.30
81800;DHT22;71195;52.528;5.704;2023-08-08T14:07:02;24.50;53.30
81800;DHT22;71195;52.528;5.704;2023-08-08T14:09:35;24.50;53.00
81800;DHT22;71195;52.528;5.704;2023-08-08T14:12:05;24.50;52.90
81800;DHT22;71195;52.528;5.704;2023-08-08T14:14:34;24.60;53.00
81800;DHT22;71195;52.528;5.704;2023-08-08T14:17:03;24.60;53.00
81800;DHT22;71195;52.528;5.704;2023-08-08T14:19:33;24.60;53.10
81800;DHT22;71195;52.528;5.704;2023-08-08T14:22:02;24.50;53.00
81800;DHT22;71195;52.528;5.704;2023-08-08T14:24:31;24.40;53.10
81800;DHT22;71195;52.528;5.704;2023-08-08T14:27:03;24.10;53.40
81800;DHT22;71195;52.528;5.704;2023-08-08T14:29:32;23.80;53.60
81800;DHT22;71195;52.528;5.704;2023-08-08T14:32:01;23.60;53.90
81800;DHT22;71195;52.528;5.704;2023-08-08T14:34:30;23.50;54.10
81800;DHT22;71195;52.528;5.704;2023-08-08T14:37:01;23.40;54.20
81800;DHT22;71195;52.528;5.704;2023-08-08T14:39:30;23.20;54.30
81800;DHT22;71195;52.528;5.704;2023-08-08T14:41:59;23.10;54.30
81800;DHT22;71195;52.528;5.704;2023-08-08T14:44:31;23.00;54.40
81800;DHT22;71195;52.528;5.704;2023-08-08T14:47:00;23.00;54.50
81800;DHT22;71195;52.528;5.704;2023-08-08T14:49:29;23.00;54.40
81800;DHT22;71195;52.528;5.704;2023-08-08T14:51:58;23.10;54.30
81800;DHT22;71195;52.528;5.704;2023-08-08T14:54:27;23.30;54.00
81800;DHT22;71195;52.528;5.704;2023-08-08T14:56:57;23.50;53.80
81800;DHT22;71195;52.528;5.704;2023-08-08T14:59:28;23.50;53.60
81800;DHT22;71195;52.528;5.704;2023-08-08T15:02:00;23.40;53.60
81800;DHT22;71195;52.528;5.704;2023-08-08T15:04:29;23.30;53.70
81800;DHT22;71195;52.528;5.704;2023-08-08T15:06:58;23.40;53.60
81800;DHT22;71195;52.528;5.704;2023-08-08T15:09:28;23.40;53.70
81800;DHT22;71195;52.528;5.704;2023-08-08T15:11:57;23.40;53.70
81800;DHT22;71195;52.528;5.704;2023-08-08T15:14:26;23.20;53.70
81800;DHT22;71195;52.528;5.704;2023-08-08T15:16:55;23.10;53.90
81800;DHT22;71195;52.528;5.704;2023-08-08T15:19:27;23.00;54.00
81800;DHT22;71195;52.528;5.704;2023-08-08T15:21:57;23.00;54.00
81800;DHT22;71195;52.528;5.704;2023-08-08T15:24:26;23.00;53.90
81800;DHT22;71195;52.528;5.704;2023-08-08T15:26:55;23.00;53.90
81800;DHT22;71195;52.528;5.704;2023-08-08T15:29:24;23.10;53.90
81800;DHT22;71195;52.528;5.704;2023-08-08T15:31:54;23.30;53.70
81800;DHT22;71195;52.528;5.704;2023-08-08T15:34:23;23.40;53.50
81800;DHT22;71195;52.528;5.704;2023-08-08T15:36:55;23.50;53.50
81800;DHT22;71195;52.528;5.704;2023-08-08T15:39:25;23.60;53.40
81800;DHT22;71195;52.528;5.704;2023-08-08T15:41:54;23.60;53.40
81800;DHT22;71195;52.528;5.704;2023-08-08T15:44:23;23.70;53.40
81800;DHT22;71195;52.528;5.704;2023-08-08T15:46:52;23.80;53.30